Ece S — 3EWK4 — position and weather

sailwx.info

Track history (hours):
 
Tides and Currents Weather Stations Pressure Air Temp Water Temp Dewpoint Dewpoint Depression Visibility Wind Speed Wind Dir Waves Ship Positions

Ece S

Last reported at 2017-Dec-17 20:50 UTC. Time now 2017-Dec-17 23:38 UTC.
Position N 40°55' E 028°53'.

Length 101 m; draft 6.8 m.

Type: Ship. MMSI: 373882000.

Date/timePositionNaut miles runAvg speedWind from/ knotsBaromVisibWave heightAir tempDewpointWater temp
2017-Dec-17 20:50N 40°55' E 028°53'3 9.1
2017-Dec-17 20:29N 40°57' E 028°55'2 0.2
2017-Dec-17 12:31N 40°59' E 028°56'0 0.0
2017-Dec-17 10:52N 40°59' E 028°56'263 6.4
2017-Dec-15 18:02N 45°12' E 030°37'1 9.2
2017-Dec-15 17:54N 45°13' E 030°37'4 9.1
2017-Dec-15 17:26N 45°17' E 030°38'5 9.0
2017-Dec-15 16:51N 45°22' E 030°39'3 8.9
2017-Dec-15 16:30N 45°25' E 030°40'14 8.6
2017-Dec-15 14:55N 45°39' E 030°44'4 8.4
2017-Dec-15 14:25N 45°43' E 030°45'38 8.7
2017-Dec-15 10:05N 46°20' E 030°52'1 9.1
2017-Dec-15 09:58N 46°21' E 030°52'4 9.2
2017-Dec-15 09:30N 46°25' E 030°51'4 8.9
2017-Dec-15 09:00N 46°29' E 030°48'2 3.6
2017-Dec-15 08:29N 46°29' E 030°45'0 0.0
2017-Dec-15 07:41N 46°29' E 030°45'0 0.0
2017-Dec-15 07:23N 46°29' E 030°45'0 0.0
2017-Dec-15 06:59N 46°29' E 030°45'0 0.0
2017-Dec-15 06:29N 46°29' E 030°45'0 0.0
2017-Dec-15 05:53N 46°29' E 030°45'0 0.0
2017-Dec-15 05:29N 46°29' E 030°45'0 0.0
2017-Dec-15 04:59N 46°29' E 030°45'0 0.0
2017-Dec-15 04:23N 46°29' E 030°45'0 0.0
2017-Dec-15 02:26N 46°29' E 030°45'0 0.0
2017-Dec-15 00:29N 46°29' E 030°45'0 0.0
2017-Dec-14 18:23N 46°29' E 030°45'0 0.0
2017-Dec-14 17:59N 46°29' E 030°45'0 0.0
2017-Dec-14 17:26N 46°29' E 030°45'0 0.0
2017-Dec-14 16:59N 46°29' E 030°45'0 0.0
2017-Dec-14 16:23N 46°29' E 030°45'0 0.0
2017-Dec-14 15:59N 46°29' E 030°45'0 0.0
2017-Dec-14 14:56N 46°29' E 030°45'0 0.0
2017-Dec-14 14:29N 46°29' E 030°45'0 0.0
2017-Dec-14 13:59N 46°29' E 030°45'0 0.0
2017-Dec-14 13:17N 46°29' E 030°45'0 0.0
2017-Dec-14 12:53N 46°29' E 030°45'0 0.0
2017-Dec-14 12:20N 46°29' E 030°45'0 0.0
2017-Dec-14 11:47N 46°29' E 030°45'0 0.0
2017-Dec-14 11:29N 46°29' E 030°45'0 0.0
2017-Dec-14 10:56N 46°29' E 030°45'0 0.0
2017-Dec-14 10:14N 46°29' E 030°45'0 0.0
2017-Dec-14 09:53N 46°29' E 030°45'0 0.0
2017-Dec-14 09:26N 46°29' E 030°45'0 0.0
2017-Dec-14 08:53N 46°29' E 030°45'0 0.0
2017-Dec-14 08:23N 46°29' E 030°45'0 0.0
2017-Dec-14 07:53N 46°29' E 030°45'0 0.0
2017-Dec-14 07:29N 46°29' E 030°45'0 0.0
2017-Dec-14 06:53N 46°29' E 030°45'0 0.0
2017-Dec-14 06:23N 46°29' E 030°45'0 0.0
2017-Dec-14 05:59N 46°29' E 030°45'0 0.0
2017-Dec-14 05:29N 46°29' E 030°45'0 0.0
2017-Dec-14 04:35N 46°29' E 030°45'0 0.0
2017-Dec-14 04:26N 46°29' E 030°45'0 0.0
2017-Dec-14 03:59N 46°29' E 030°45'0 0.0
2017-Dec-14 03:23N 46°29' E 030°45'0 0.0
2017-Dec-14 02:59N 46°29' E 030°45'0 0.0
2017-Dec-14 02:26N 46°29' E 030°45'0 0.0
2017-Dec-14 01:56N 46°29' E 030°45'0 0.0
2017-Dec-14 01:20N 46°29' E 030°45'0 0.0
2017-Dec-14 00:53N 46°29' E 030°45'0 0.0
2017-Dec-14 00:26N 46°29' E 030°45'0 0.0
2017-Dec-13 23:38N 46°29' E 030°45'0 0.0
2017-Dec-13 23:29N 46°29' E 030°45'0 0.0
2017-Dec-13 22:59N 46°29' E 030°45'0 0.0
2017-Dec-13 22:26N 46°29' E 030°45'0 0.0
2017-Dec-13 21:59N 46°29' E 030°45'0 0.0
2017-Dec-13 21:29N 46°29' E 030°45'0 0.0
2017-Dec-13 20:44N 46°29' E 030°45'0 0.0
2017-Dec-13 20:20N 46°29' E 030°45'0 0.0
2017-Dec-13 19:59N 46°29' E 030°45'0 0.0
2017-Dec-13 19:29N 46°29' E 030°45'0 0.0
2017-Dec-13 18:50N 46°29' E 030°45'0 0.0
2017-Dec-13 18:29N 46°29' E 030°45'0 0.0
2017-Dec-13 17:53N 46°29' E 030°45'0 0.0
2017-Dec-13 17:29N 46°29' E 030°45'0 0.0
2017-Dec-13 16:56N 46°29' E 030°45'0 0.0
2017-Dec-13 16:29N 46°29' E 030°45'0 0.0
2017-Dec-13 15:59N 46°29' E 030°45'0 0.0
2017-Dec-13 15:26N 46°29' E 030°45'0 0.0
2017-Dec-13 14:41N 46°29' E 030°45'0 0.0
2017-Dec-13 14:20N 46°29' E 030°45'0 0.0
2017-Dec-13 13:47N 46°29' E 030°45'0 0.0
2017-Dec-13 13:29N 46°29' E 030°45'0 0.0
2017-Dec-13 12:59N 46°29' E 030°45'0 0.0
2017-Dec-13 12:20N 46°29' E 030°45'0 0.0
2017-Dec-13 11:53N 46°29' E 030°45'0 0.0
2017-Dec-13 11:29N 46°29' E 030°45'0 0.0
2017-Dec-13 10:59N 46°29' E 030°45'0 0.0
2017-Dec-13 09:47N 46°29' E 030°45'0 0.0
2017-Dec-13 09:29N 46°29' E 030°45'0 0.0
2017-Dec-13 08:59N 46°29' E 030°45'0 0.0
2017-Dec-13 08:20N 46°29' E 030°45'0 0.0
2017-Dec-13 07:59N 46°29' E 030°45'0 0.0
2017-Dec-13 07:23N 46°29' E 030°45'0 0.0
2017-Dec-13 06:08N 46°29' E 030°45'0 0.0
2017-Dec-13 05:44N 46°29' E 030°45'0 0.0
2017-Dec-13 05:29N 46°29' E 030°45'0 0.0
2017-Dec-13 04:59N 46°29' E 030°45'0 0.0
2017-Dec-13 04:23N 46°29' E 030°45'0 0.0
2017-Dec-13 03:59N 46°29' E 030°45'0 0.0
2017-Dec-13 03:26N 46°29' E 030°45'0 0.0
2017-Dec-13 02:59N 46°29' E 030°45'0 0.0
2017-Dec-13 02:26N 46°29' E 030°45'0 0.0
2017-Dec-13 01:53N 46°29' E 030°45'0 0.0
2017-Dec-13 01:11N 46°29' E 030°45'0 0.0
2017-Dec-13 00:50N 46°29' E 030°45'0 0.0
2017-Dec-13 00:26N 46°29' E 030°45'0 0.0
2017-Dec-12 23:53N 46°29' E 030°45'0 0.0
2017-Dec-12 23:26N 46°29' E 030°45'0 0.0
2017-Dec-12 22:50N 46°29' E 030°45'0 0.0
2017-Dec-12 22:29N 46°29' E 030°45'0 0.0
2017-Dec-12 21:44N 46°29' E 030°45'0 0.0
2017-Dec-12 21:29N 46°29' E 030°45'0 0.0
2017-Dec-12 20:53N 46°29' E 030°45'0 0.0
2017-Dec-12 20:26N 46°29' E 030°45'0 0.0
2017-Dec-12 19:59N 46°29' E 030°45'0 0.0
2017-Dec-12 19:29N 46°29' E 030°45'0 0.0
2017-Dec-12 18:56N 46°29' E 030°45'0 0.0
2017-Dec-12 18:29N 46°29' E 030°45'0 0.0
2017-Dec-12 17:47N 46°29' E 030°45'0 0.0
2017-Dec-12 17:30N 46°29' E 030°45'0 0.9
2017-Dec-12 17:00N 46°30' E 030°45'2 4.1
2017-Dec-12 16:30N 46°30' E 030°48'3 5.6
2017-Dec-12 16:00N 46°28' E 030°51'3 6.1
2017-Dec-12 15:30N 46°25' E 030°52'810.1
2017-Dec-12 14:43N 46°17' E 030°56'2 9.7
2017-Dec-12 14:31N 46°15' E 030°58'510.2
2017-Dec-12 14:00N 46°11' E 030°54'2910.4
2017-Dec-12 11:12N 45°46' E 030°33'210.7
2017-Dec-12 11:00N 45°44' E 030°31'510.7
2017-Dec-12 10:30N 45°40' E 030°27'510.7
2017-Dec-12 10:00N 45°35' E 030°23'510.7
2017-Dec-12 09:30N 45°31' E 030°19'510.8
2017-Dec-12 09:00N 45°26' E 030°15'510.8
2017-Dec-12 08:30N 45°22' E 030°11'510.8
2017-Dec-12 08:00N 45°17' E 030°07'611.0
2017-Dec-12 07:30N 45°12' E 030°04'511.0
2017-Dec-12 07:00N 45°06' E 030°02'611.1
2017-Dec-12 06:30N 45°01' E 029°59'611.1
2017-Dec-12 06:00N 44°56' E 029°56'611.2
2017-Dec-12 05:30N 44°51' E 029°54'811.1
2017-Dec-12 04:45N 44°43' E 029°50'311.0
2017-Dec-12 04:29N 44°40' E 029°48'510.9
2017-Dec-12 04:00N 44°35' E 029°46'611.1
2017-Dec-12 03:29N 44°30' E 029°43'910.9
2017-Dec-12 02:42N 44°24' E 029°34'211.2
2017-Dec-12 02:30N 44°23' E 029°31'611.2
2017-Dec-12 02:00N 44°20' E 029°25'611.1
2017-Dec-12 01:30N 44°17' E 029°18'611.1
2017-Dec-12 01:00N 44°15' E 029°11'611.0
2017-Dec-12 00:30N 44°12' E 029°05'510.3
2017-Dec-12 00:00N 44°10' E 028°58'510.3
2017-Dec-11 23:30N 44°07' E 028°52'510.4
2017-Dec-11 23:00N 44°04' E 028°46'4 7.8
2017-Dec-11 22:30N 44°07' E 028°41'3 5.3
2017-Dec-11 22:00N 44°09' E 028°39'0 0.9
2017-Dec-11 21:29N 44°09' E 028°39'0 0.0
2017-Dec-11 20:59N 44°09' E 028°39'0 0.0
2017-Dec-11 20:29N 44°09' E 028°39'0 0.0
2017-Dec-11 19:59N 44°09' E 028°39'0 0.0
2017-Dec-11 19:29N 44°09' E 028°39'0 0.0
2017-Dec-11 18:59N 44°09' E 028°39'0 0.0
2017-Dec-11 18:29N 44°09' E 028°39'0 0.0
2017-Dec-11 17:59N 44°09' E 028°39'0 0.0
2017-Dec-11 17:29N 44°09' E 028°39'0 0.0
2017-Dec-11 16:59N 44°09' E 028°39'0 0.0
2017-Dec-11 16:29N 44°09' E 028°39'0 0.0
2017-Dec-11 15:59N 44°09' E 028°39'0 0.0
2017-Dec-11 15:29N 44°09' E 028°39'0 0.0
2017-Dec-11 14:59N 44°09' E 028°39'0 0.0
2017-Dec-11 14:29N 44°09' E 028°39'0 0.0
2017-Dec-11 13:59N 44°09' E 028°39'0 0.0
2017-Dec-11 13:29N 44°09' E 028°39'0 0.0
2017-Dec-11 12:59N 44°09' E 028°39'0 0.0
2017-Dec-11 12:29N 44°09' E 028°39'0 0.0
2017-Dec-11 11:59N 44°09' E 028°39'0 0.0
2017-Dec-11 11:29N 44°09' E 028°39'0 0.0
2017-Dec-11 10:59N 44°09' E 028°39'0 0.0
2017-Dec-11 10:29N 44°09' E 028°39'0 0.0
2017-Dec-11 09:59N 44°09' E 028°39'0 0.0
2017-Dec-11 09:29N 44°09' E 028°39'0 0.0
2017-Dec-11 08:59N 44°09' E 028°39'0 0.0
2017-Dec-11 08:29N 44°09' E 028°39'0 0.0
2017-Dec-11 07:59N 44°09' E 028°39'0 0.0
2017-Dec-11 07:29N 44°09' E 028°39'0 0.0
2017-Dec-11 06:59N 44°09' E 028°39'0 0.0
2017-Dec-11 06:29N 44°09' E 028°39'0 0.0
2017-Dec-11 05:59N 44°09' E 028°39'0 0.0
2017-Dec-11 05:29N 44°09' E 028°39'0 0.0
2017-Dec-11 04:59N 44°09' E 028°39'0 0.0
2017-Dec-11 04:29N 44°09' E 028°39'0 0.0
2017-Dec-11 03:59N 44°09' E 028°39'0 0.0
2017-Dec-11 03:29N 44°09' E 028°39'0 0.0
2017-Dec-11 02:59N 44°09' E 028°39'0 0.0
2017-Dec-11 02:29N 44°09' E 028°39'0 0.0
2017-Dec-11 01:59N 44°09' E 028°39'0 0.0
2017-Dec-11 01:26N 44°09' E 028°39'0 0.0
2017-Dec-11 00:59N 44°09' E 028°39'0 0.0
2017-Dec-11 00:28N 44°09' E 028°39'0 0.0
2017-Dec-10 23:58N 44°09' E 028°39'0 0.0
2017-Dec-10 23:28N 44°09' E 028°39'0 0.0
2017-Dec-10 22:58N 44°09' E 028°39'0 0.0
2017-Dec-10 22:28N 44°09' E 028°39'0 0.0
2017-Dec-10 21:58N 44°09' E 028°39'0 0.0
2017-Dec-10 21:28N 44°09' E 028°39'0 0.0
2017-Dec-10 20:58N 44°09' E 028°39'0 0.0
2017-Dec-10 20:28N 44°09' E 028°39'0 0.0
2017-Dec-10 19:58N 44°09' E 028°39'0 0.0
2017-Dec-10 19:28N 44°09' E 028°39'0 0.0
2017-Dec-10 18:58N 44°09' E 028°39'0 0.0
2017-Dec-10 18:28N 44°09' E 028°39'0 0.0
2017-Dec-10 17:58N 44°09' E 028°39'0 0.0
2017-Dec-10 17:28N 44°09' E 028°39'0 0.0
2017-Dec-10 16:55N 44°09' E 028°39'0 0.0
2017-Dec-10 16:25N 44°09' E 028°39'0 0.0
2017-Dec-10 15:58N 44°09' E 028°39'0 0.0
2017-Dec-10 15:28N 44°09' E 028°39'0 0.0
2017-Dec-10 14:58N 44°09' E 028°39'0 0.0
2017-Dec-10 14:28N 44°09' E 028°39'0 0.0
2017-Dec-10 13:58N 44°09' E 028°39'0 0.0
2017-Dec-10 13:28N 44°09' E 028°39'0 0.0
2017-Dec-10 12:58N 44°09' E 028°39'0 0.0
2017-Dec-10 12:28N 44°09' E 028°39'0 0.0
2017-Dec-10 11:58N 44°09' E 028°39'0 0.0
2017-Dec-10 11:28N 44°09' E 028°39'0 0.0
2017-Dec-10 10:55N 44°09' E 028°39'0 0.0
2017-Dec-10 10:28N 44°09' E 028°39'0 0.0
2017-Dec-10 09:58N 44°09' E 028°39'0 0.0
2017-Dec-10 09:28N 44°09' E 028°39'0 0.0
2017-Dec-10 08:58N 44°09' E 028°39'0 0.0
2017-Dec-10 08:28N 44°09' E 028°39'0 0.0
2017-Dec-10 07:58N 44°09' E 028°39'0 0.0
2017-Dec-10 07:28N 44°09' E 028°39'0 0.0
2017-Dec-10 06:58N 44°09' E 028°39'0 0.0
2017-Dec-10 06:28N 44°09' E 028°39'0 0.0
2017-Dec-10 05:58N 44°09' E 028°39'0 0.0
2017-Dec-10 05:28N 44°09' E 028°39'0 0.0
2017-Dec-10 04:58N 44°09' E 028°39'0 0.0
2017-Dec-10 04:28N 44°09' E 028°39'0 0.0
2017-Dec-10 03:58N 44°09' E 028°39'0 0.0
2017-Dec-10 03:28N 44°09' E 028°39'0 0.0
2017-Dec-10 02:58N 44°09' E 028°39'0 0.0
2017-Dec-10 02:28N 44°09' E 028°39'0 0.0
2017-Dec-10 01:58N 44°09' E 028°39'0 0.0
2017-Dec-10 01:28N 44°09' E 028°39'0 0.0
2017-Dec-10 00:58N 44°09' E 028°39'0 0.0
2017-Dec-10 00:28N 44°09' E 028°39'0 0.0
2017-Dec-09 23:58N 44°09' E 028°39'0 0.0
2017-Dec-09 23:28N 44°09' E 028°39'0 0.0
2017-Dec-09 22:58N 44°09' E 028°39'0 0.0
2017-Dec-09 22:28N 44°09' E 028°39'0 0.0
2017-Dec-09 21:58N 44°09' E 028°39'0 0.0
2017-Dec-09 21:28N 44°09' E 028°39'0 0.0
2017-Dec-09 20:58N 44°09' E 028°39'0 0.0
2017-Dec-09 20:28N 44°09' E 028°39'0 0.0
2017-Dec-09 19:58N 44°09' E 028°39'0 0.0
2017-Dec-09 19:28N 44°09' E 028°39'0 0.0
2017-Dec-09 18:58N 44°09' E 028°39'0 0.0
2017-Dec-09 18:28N 44°09' E 028°39'0 0.0
2017-Dec-09 18:00N 44°09' E 028°39'0 0.2
2017-Dec-09 17:31N 44°09' E 028°39'1 2.1
2017-Dec-09 17:00N 44°09' E 028°40'3 5.1
2017-Dec-09 16:31N 44°06' E 028°42'2 4.8
2017-Dec-09 16:00N 44°05' E 028°44'3 6.5
2017-Dec-09 15:30N 44°03' E 028°49'4 7.6
2017-Dec-09 15:00N 44°02' E 028°54'3 6.9
2017-Dec-09 14:30N 44°02' E 028°58'4 7.6
2017-Dec-09 14:00N 44°02' E 029°04'4 7.6
2017-Dec-09 13:30N 44°02' E 029°09'4 7.2
2017-Dec-09 13:00N 44°02' E 029°14'4 7.3
2017-Dec-09 12:29N 44°03' E 029°19'  
Track history (hours):
 
Tides and Currents Weather Stations Pressure Air Temp Water Temp Dewpoint Dewpoint Depression Visibility Wind Speed Wind Dir Waves Ship Positions

Ece S

Last reported at 2017-Dec-17 20:50 UTC. Time now 2017-Dec-17 23:38 UTC.
Position N 40°55' E 028°53'.

Length 101 m; draft 6.8 m.

Type: Ship. MMSI: 373882000.

Date/timePositionNaut miles runAvg speedWind from/ knotsBaromVisibWave heightAir tempDewpointWater temp
2017-Dec-17 20:50N 40°55' E 028°53'3 9.1
2017-Dec-17 20:29N 40°57' E 028°55'2 0.2
2017-Dec-17 12:31N 40°59' E 028°56'0 0.0
2017-Dec-17 10:52N 40°59' E 028°56'263 6.4
2017-Dec-15 18:02N 45°12' E 030°37'1 9.2
2017-Dec-15 17:54N 45°13' E 030°37'4 9.1
2017-Dec-15 17:26N 45°17' E 030°38'5 9.0
2017-Dec-15 16:51N 45°22' E 030°39'3 8.9
2017-Dec-15 16:30N 45°25' E 030°40'14 8.6
2017-Dec-15 14:55N 45°39' E 030°44'4 8.4
2017-Dec-15 14:25N 45°43' E 030°45'38 8.7
2017-Dec-15 10:05N 46°20' E 030°52'1 9.1
2017-Dec-15 09:58N 46°21' E 030°52'4 9.2
2017-Dec-15 09:30N 46°25' E 030°51'4 8.9
2017-Dec-15 09:00N 46°29' E 030°48'2 3.6
2017-Dec-15 08:29N 46°29' E 030°45'0 0.0
2017-Dec-15 07:41N 46°29' E 030°45'0 0.0
2017-Dec-15 07:23N 46°29' E 030°45'0 0.0
2017-Dec-15 06:59N 46°29' E 030°45'0 0.0
2017-Dec-15 06:29N 46°29' E 030°45'0 0.0
2017-Dec-15 05:53N 46°29' E 030°45'0 0.0
2017-Dec-15 05:29N 46°29' E 030°45'0 0.0
2017-Dec-15 04:59N 46°29' E 030°45'0 0.0
2017-Dec-15 04:23N 46°29' E 030°45'0 0.0
2017-Dec-15 02:26N 46°29' E 030°45'0 0.0
2017-Dec-15 00:29N 46°29' E 030°45'0 0.0
2017-Dec-14 18:23N 46°29' E 030°45'0 0.0
2017-Dec-14 17:59N 46°29' E 030°45'0 0.0
2017-Dec-14 17:26N 46°29' E 030°45'0 0.0
2017-Dec-14 16:59N 46°29' E 030°45'0 0.0
2017-Dec-14 16:23N 46°29' E 030°45'0 0.0
2017-Dec-14 15:59N 46°29' E 030°45'0 0.0
2017-Dec-14 14:56N 46°29' E 030°45'0 0.0
2017-Dec-14 14:29N 46°29' E 030°45'0 0.0
2017-Dec-14 13:59N 46°29' E 030°45'0 0.0
2017-Dec-14 13:17N 46°29' E 030°45'0 0.0
2017-Dec-14 12:53N 46°29' E 030°45'0 0.0
2017-Dec-14 12:20N 46°29' E 030°45'0 0.0
2017-Dec-14 11:47N 46°29' E 030°45'0 0.0
2017-Dec-14 11:29N 46°29' E 030°45'0 0.0
2017-Dec-14 10:56N 46°29' E 030°45'0 0.0
2017-Dec-14 10:14N 46°29' E 030°45'0 0.0
2017-Dec-14 09:53N 46°29' E 030°45'0 0.0
2017-Dec-14 09:26N 46°29' E 030°45'0 0.0
2017-Dec-14 08:53N 46°29' E 030°45'0 0.0
2017-Dec-14 08:23N 46°29' E 030°45'0 0.0
2017-Dec-14 07:53N 46°29' E 030°45'0 0.0
2017-Dec-14 07:29N 46°29' E 030°45'0 0.0
2017-Dec-14 06:53N 46°29' E 030°45'0 0.0
2017-Dec-14 06:23N 46°29' E 030°45'0 0.0
2017-Dec-14 05:59N 46°29' E 030°45'0 0.0
2017-Dec-14 05:29N 46°29' E 030°45'0 0.0
2017-Dec-14 04:35N 46°29' E 030°45'0 0.0
2017-Dec-14 04:26N 46°29' E 030°45'0 0.0
2017-Dec-14 03:59N 46°29' E 030°45'0 0.0
2017-Dec-14 03:23N 46°29' E 030°45'0 0.0
2017-Dec-14 02:59N 46°29' E 030°45'0 0.0
2017-Dec-14 02:26N 46°29' E 030°45'0 0.0
2017-Dec-14 01:56N 46°29' E 030°45'0 0.0
2017-Dec-14 01:20N 46°29' E 030°45'0 0.0
2017-Dec-14 00:53N 46°29' E 030°45'0 0.0
2017-Dec-14 00:26N 46°29' E 030°45'0 0.0
2017-Dec-13 23:38N 46°29' E 030°45'0 0.0
2017-Dec-13 23:29N 46°29' E 030°45'0 0.0
2017-Dec-13 22:59N 46°29' E 030°45'0 0.0
2017-Dec-13 22:26N 46°29' E 030°45'0 0.0
2017-Dec-13 21:59N 46°29' E 030°45'0 0.0
2017-Dec-13 21:29N 46°29' E 030°45'0 0.0
2017-Dec-13 20:44N 46°29' E 030°45'0 0.0
2017-Dec-13 20:20N 46°29' E 030°45'0 0.0
2017-Dec-13 19:59N 46°29' E 030°45'0 0.0
2017-Dec-13 19:29N 46°29' E 030°45'0 0.0
2017-Dec-13 18:50N 46°29' E 030°45'0 0.0
2017-Dec-13 18:29N 46°29' E 030°45'0 0.0
2017-Dec-13 17:53N 46°29' E 030°45'0 0.0
2017-Dec-13 17:29N 46°29' E 030°45'0 0.0
2017-Dec-13 16:56N 46°29' E 030°45'0 0.0
2017-Dec-13 16:29N 46°29' E 030°45'0 0.0
2017-Dec-13 15:59N 46°29' E 030°45'0 0.0
2017-Dec-13 15:26N 46°29' E 030°45'0 0.0
2017-Dec-13 14:41N 46°29' E 030°45'0 0.0
2017-Dec-13 14:20N 46°29' E 030°45'0 0.0
2017-Dec-13 13:47N 46°29' E 030°45'0 0.0
2017-Dec-13 13:29N 46°29' E 030°45'0 0.0
2017-Dec-13 12:59N 46°29' E 030°45'0 0.0
2017-Dec-13 12:20N 46°29' E 030°45'0 0.0
2017-Dec-13 11:53N 46°29' E 030°45'0 0.0
2017-Dec-13 11:29N 46°29' E 030°45'0 0.0
2017-Dec-13 10:59N 46°29' E 030°45'0 0.0
2017-Dec-13 09:47N 46°29' E 030°45'0 0.0
2017-Dec-13 09:29N 46°29' E 030°45'0 0.0
2017-Dec-13 08:59N 46°29' E 030°45'0 0.0
2017-Dec-13 08:20N 46°29' E 030°45'0 0.0
2017-Dec-13 07:59N 46°29' E 030°45'0 0.0
2017-Dec-13 07:23N 46°29' E 030°45'0 0.0
2017-Dec-13 06:08N 46°29' E 030°45'0 0.0
2017-Dec-13 05:44N 46°29' E 030°45'0 0.0
2017-Dec-13 05:29N 46°29' E 030°45'0 0.0
2017-Dec-13 04:59N 46°29' E 030°45'0 0.0
2017-Dec-13 04:23N 46°29' E 030°45'0 0.0
2017-Dec-13 03:59N 46°29' E 030°45'0 0.0
2017-Dec-13 03:26N 46°29' E 030°45'0 0.0
2017-Dec-13 02:59N 46°29' E 030°45'0 0.0
2017-Dec-13 02:26N 46°29' E 030°45'0 0.0
2017-Dec-13 01:53N 46°29' E 030°45'0 0.0
2017-Dec-13 01:11N 46°29' E 030°45'0 0.0
2017-Dec-13 00:50N 46°29' E 030°45'0 0.0
2017-Dec-13 00:26N 46°29' E 030°45'0 0.0
2017-Dec-12 23:53N 46°29' E 030°45'0 0.0
2017-Dec-12 23:26N 46°29' E 030°45'0 0.0
2017-Dec-12 22:50N 46°29' E 030°45'0 0.0
2017-Dec-12 22:29N 46°29' E 030°45'0 0.0
2017-Dec-12 21:44N 46°29' E 030°45'0 0.0
2017-Dec-12 21:29N 46°29' E 030°45'0 0.0
2017-Dec-12 20:53N 46°29' E 030°45'0 0.0
2017-Dec-12 20:26N 46°29' E 030°45'0 0.0
2017-Dec-12 19:59N 46°29' E 030°45'0 0.0
2017-Dec-12 19:29N 46°29' E 030°45'0 0.0
2017-Dec-12 18:56N 46°29' E 030°45'0 0.0
2017-Dec-12 18:29N 46°29' E 030°45'0 0.0
2017-Dec-12 17:47N 46°29' E 030°45'0 0.0
2017-Dec-12 17:30N 46°29' E 030°45'0 0.9
2017-Dec-12 17:00N 46°30' E 030°45'2 4.1
2017-Dec-12 16:30N 46°30' E 030°48'3 5.6
2017-Dec-12 16:00N 46°28' E 030°51'3 6.1
2017-Dec-12 15:30N 46°25' E 030°52'810.1
2017-Dec-12 14:43N 46°17' E 030°56'2 9.7
2017-Dec-12 14:31N 46°15' E 030°58'510.2
2017-Dec-12 14:00N 46°11' E 030°54'2910.4
2017-Dec-12 11:12N 45°46' E 030°33'210.7
2017-Dec-12 11:00N 45°44' E 030°31'510.7
2017-Dec-12 10:30N 45°40' E 030°27'510.7
2017-Dec-12 10:00N 45°35' E 030°23'510.7
2017-Dec-12 09:30N 45°31' E 030°19'510.8
2017-Dec-12 09:00N 45°26' E 030°15'510.8
2017-Dec-12 08:30N 45°22' E 030°11'510.8
2017-Dec-12 08:00N 45°17' E 030°07'611.0
2017-Dec-12 07:30N 45°12' E 030°04'511.0
2017-Dec-12 07:00N 45°06' E 030°02'611.1
2017-Dec-12 06:30N 45°01' E 029°59'611.1
2017-Dec-12 06:00N 44°56' E 029°56'611.2
2017-Dec-12 05:30N 44°51' E 029°54'811.1
2017-Dec-12 04:45N 44°43' E 029°50'311.0
2017-Dec-12 04:29N 44°40' E 029°48'510.9
2017-Dec-12 04:00N 44°35' E 029°46'611.1
2017-Dec-12 03:29N 44°30' E 029°43'910.9
2017-Dec-12 02:42N 44°24' E 029°34'211.2
2017-Dec-12 02:30N 44°23' E 029°31'611.2
2017-Dec-12 02:00N 44°20' E 029°25'611.1
2017-Dec-12 01:30N 44°17' E 029°18'611.1
2017-Dec-12 01:00N 44°15' E 029°11'611.0
2017-Dec-12 00:30N 44°12' E 029°05'510.3
2017-Dec-12 00:00N 44°10' E 028°58'510.3
2017-Dec-11 23:30N 44°07' E 028°52'510.4
2017-Dec-11 23:00N 44°04' E 028°46'4 7.8
2017-Dec-11 22:30N 44°07' E 028°41'3 5.3
2017-Dec-11 22:00N 44°09' E 028°39'0 0.9
2017-Dec-11 21:29N 44°09' E 028°39'0 0.0
2017-Dec-11 20:59N 44°09' E 028°39'0 0.0
2017-Dec-11 20:29N 44°09' E 028°39'0 0.0
2017-Dec-11 19:59N 44°09' E 028°39'0 0.0
2017-Dec-11 19:29N 44°09' E 028°39'0 0.0
2017-Dec-11 18:59N 44°09' E 028°39'0 0.0
2017-Dec-11 18:29N 44°09' E 028°39'0 0.0
2017-Dec-11 17:59N 44°09' E 028°39'0 0.0
2017-Dec-11 17:29N 44°09' E 028°39'0 0.0
2017-Dec-11 16:59N 44°09' E 028°39'0 0.0
2017-Dec-11 16:29N 44°09' E 028°39'0 0.0
2017-Dec-11 15:59N 44°09' E 028°39'0 0.0
2017-Dec-11 15:29N 44°09' E 028°39'0 0.0
2017-Dec-11 14:59N 44°09' E 028°39'0 0.0
2017-Dec-11 14:29N 44°09' E 028°39'0 0.0
2017-Dec-11 13:59N 44°09' E 028°39'0 0.0
2017-Dec-11 13:29N 44°09' E 028°39'0 0.0
2017-Dec-11 12:59N 44°09' E 028°39'0 0.0
2017-Dec-11 12:29N 44°09' E 028°39'0 0.0
2017-Dec-11 11:59N 44°09' E 028°39'0 0.0
2017-Dec-11 11:29N 44°09' E 028°39'0 0.0
2017-Dec-11 10:59N 44°09' E 028°39'0 0.0
2017-Dec-11 10:29N 44°09' E 028°39'0 0.0
2017-Dec-11 09:59N 44°09' E 028°39'0 0.0
2017-Dec-11 09:29N 44°09' E 028°39'0 0.0
2017-Dec-11 08:59N 44°09' E 028°39'0 0.0
2017-Dec-11 08:29N 44°09' E 028°39'0 0.0
2017-Dec-11 07:59N 44°09' E 028°39'0 0.0
2017-Dec-11 07:29N 44°09' E 028°39'0 0.0
2017-Dec-11 06:59N 44°09' E 028°39'0 0.0
2017-Dec-11 06:29N 44°09' E 028°39'0 0.0
2017-Dec-11 05:59N 44°09' E 028°39'0 0.0
2017-Dec-11 05:29N 44°09' E 028°39'0 0.0
2017-Dec-11 04:59N 44°09' E 028°39'0 0.0
2017-Dec-11 04:29N 44°09' E 028°39'0 0.0
2017-Dec-11 03:59N 44°09' E 028°39'0 0.0
2017-Dec-11 03:29N 44°09' E 028°39'0 0.0
2017-Dec-11 02:59N 44°09' E 028°39'0 0.0
2017-Dec-11 02:29N 44°09' E 028°39'0 0.0
2017-Dec-11 01:59N 44°09' E 028°39'0 0.0
2017-Dec-11 01:26N 44°09' E 028°39'0 0.0
2017-Dec-11 00:59N 44°09' E 028°39'0 0.0
2017-Dec-11 00:28N 44°09' E 028°39'0 0.0
2017-Dec-10 23:58N 44°09' E 028°39'0 0.0
2017-Dec-10 23:28N 44°09' E 028°39'0 0.0
2017-Dec-10 22:58N 44°09' E 028°39'0 0.0
2017-Dec-10 22:28N 44°09' E 028°39'0 0.0
2017-Dec-10 21:58N 44°09' E 028°39'0 0.0
2017-Dec-10 21:28N 44°09' E 028°39'0 0.0
2017-Dec-10 20:58N 44°09' E 028°39'0 0.0
2017-Dec-10 20:28N 44°09' E 028°39'0 0.0
2017-Dec-10 19:58N 44°09' E 028°39'0 0.0
2017-Dec-10 19:28N 44°09' E 028°39'0 0.0
2017-Dec-10 18:58N 44°09' E 028°39'0 0.0
2017-Dec-10 18:28N 44°09' E 028°39'0 0.0
2017-Dec-10 17:58N 44°09' E 028°39'0 0.0
2017-Dec-10 17:28N 44°09' E 028°39'0 0.0
2017-Dec-10 16:55N 44°09' E 028°39'0 0.0
2017-Dec-10 16:25N 44°09' E 028°39'0 0.0
2017-Dec-10 15:58N 44°09' E 028°39'0 0.0
2017-Dec-10 15:28N 44°09' E 028°39'0 0.0
2017-Dec-10 14:58N 44°09' E 028°39'0 0.0
2017-Dec-10 14:28N 44°09' E 028°39'0 0.0
2017-Dec-10 13:58N 44°09' E 028°39'0 0.0
2017-Dec-10 13:28N 44°09' E 028°39'0 0.0
2017-Dec-10 12:58N 44°09' E 028°39'0 0.0
2017-Dec-10 12:28N 44°09' E 028°39'0 0.0
2017-Dec-10 11:58N 44°09' E 028°39'0 0.0
2017-Dec-10 11:28N 44°09' E 028°39'0 0.0
2017-Dec-10 10:55N 44°09' E 028°39'0 0.0
2017-Dec-10 10:28N 44°09' E 028°39'0 0.0
2017-Dec-10 09:58N 44°09' E 028°39'0 0.0
2017-Dec-10 09:28N 44°09' E 028°39'0 0.0
2017-Dec-10 08:58N 44°09' E 028°39'0 0.0
2017-Dec-10 08:28N 44°09' E 028°39'0 0.0
2017-Dec-10 07:58N 44°09' E 028°39'0 0.0
2017-Dec-10 07:28N 44°09' E 028°39'0 0.0
2017-Dec-10 06:58N 44°09' E 028°39'0 0.0
2017-Dec-10 06:28N 44°09' E 028°39'0 0.0
2017-Dec-10 05:58N 44°09' E 028°39'0 0.0
2017-Dec-10 05:28N 44°09' E 028°39'0 0.0
2017-Dec-10 04:58N 44°09' E 028°39'0 0.0
2017-Dec-10 04:28N 44°09' E 028°39'0 0.0
2017-Dec-10 03:58N 44°09' E 028°39'0 0.0
2017-Dec-10 03:28N 44°09' E 028°39'0 0.0
2017-Dec-10 02:58N 44°09' E 028°39'0 0.0
2017-Dec-10 02:28N 44°09' E 028°39'0 0.0
2017-Dec-10 01:58N 44°09' E 028°39'0 0.0
2017-Dec-10 01:28N 44°09' E 028°39'0 0.0
2017-Dec-10 00:58N 44°09' E 028°39'0 0.0
2017-Dec-10 00:28N 44°09' E 028°39'0 0.0
2017-Dec-09 23:58N 44°09' E 028°39'0 0.0
2017-Dec-09 23:28N 44°09' E 028°39'0 0.0
2017-Dec-09 22:58N 44°09' E 028°39'0 0.0
2017-Dec-09 22:28N 44°09' E 028°39'0 0.0
2017-Dec-09 21:58N 44°09' E 028°39'0 0.0
2017-Dec-09 21:28N 44°09' E 028°39'0 0.0
2017-Dec-09 20:58N 44°09' E 028°39'0 0.0
2017-Dec-09 20:28N 44°09' E 028°39'0 0.0
2017-Dec-09 19:58N 44°09' E 028°39'0 0.0
2017-Dec-09 19:28N 44°09' E 028°39'0 0.0
2017-Dec-09 18:58N 44°09' E 028°39'0 0.0
2017-Dec-09 18:28N 44°09' E 028°39'0 0.0
2017-Dec-09 18:00N 44°09' E 028°39'0 0.2
2017-Dec-09 17:31N 44°09' E 028°39'1 2.1
2017-Dec-09 17:00N 44°09' E 028°40'3 5.1
2017-Dec-09 16:31N 44°06' E 028°42'2 4.8
2017-Dec-09 16:00N 44°05' E 028°44'3 6.5
2017-Dec-09 15:30N 44°03' E 028°49'4 7.6
2017-Dec-09 15:00N 44°02' E 028°54'3 6.9
2017-Dec-09 14:30N 44°02' E 028°58'4 7.6
2017-Dec-09 14:00N 44°02' E 029°04'4 7.6
2017-Dec-09 13:30N 44°02' E 029°09'4 7.2
2017-Dec-09 13:00N 44°02' E 029°14'4 7.3
2017-Dec-09 12:29N 44°03' E 029°19'  

Dump ship's entire track history